createdAt,value
2018-09-27T14:17:16.966Z,15.6
2018-09-27T14:18:17.246Z,15.9
2018-09-27T14:19:16.522Z,16.0
2018-09-27T14:20:16.808Z,15.7
2018-09-27T14:21:16.843Z,15.3
2018-09-27T14:22:17.123Z,16.7
2018-09-27T14:23:16.386Z,16.4
2018-09-27T14:24:16.666Z,16.2
2018-09-27T14:25:16.949Z,18.4
2018-09-27T14:26:17.215Z,17.7
2018-09-27T14:27:16.492Z,17.0
2018-09-27T14:28:16.755Z,16.4
2018-09-27T14:29:17.032Z,16.5
2018-09-27T14:30:16.307Z,16.1
2018-09-27T14:31:16.374Z,16.6
2018-09-27T14:32:16.944Z,16.9
2018-09-27T14:33:17.250Z,17.0
2018-09-27T14:34:16.525Z,17.1
2018-09-27T14:35:16.806Z,15.5
2018-09-27T14:36:17.077Z,15.5
2018-09-27T14:37:16.351Z,15.6
2018-09-27T14:38:16.611Z,16.6
2018-09-27T14:39:16.992Z,15.7
2018-09-27T14:40:16.278Z,15.7
2018-09-27T14:41:16.304Z,15.6
2018-09-27T14:42:16.568Z,16.8
2018-09-27T14:43:16.848Z,16.4
2018-09-27T14:44:17.121Z,16.2
2018-09-27T14:45:16.382Z,16.5
2018-09-27T14:46:16.655Z,16.0
2018-09-27T14:47:16.923Z,16.0
2018-09-27T14:48:17.190Z,15.8
2018-09-27T14:49:16.466Z,15.4
2018-09-27T14:50:17.033Z,15.8
2018-09-27T14:51:16.777Z,16.4
2018-09-27T14:52:17.050Z,16.4
2018-09-27T14:53:16.317Z,17.4
2018-09-27T14:54:16.588Z,17.4
2018-09-27T14:55:16.860Z,17.3
2018-09-27T14:56:17.356Z,17.0
2018-09-27T14:57:16.689Z,16.9
2018-09-27T14:58:16.953Z,17.2
2018-09-27T14:59:17.230Z,17.5
2018-09-27T15:00:16.500Z,17.5
2018-09-27T15:01:16.553Z,17.7
2018-09-27T15:02:17.218Z,17.4
2018-09-27T15:03:16.556Z,17.5
2018-09-27T15:04:16.825Z,18.0
2018-09-27T15:05:17.094Z,19.3
2018-09-27T15:06:16.356Z,17.7
2018-09-27T15:07:16.631Z,17.5
2018-09-27T15:08:16.895Z,17.6
2018-09-27T15:09:17.425Z,18.2
2018-09-27T15:10:16.891Z,18.5
2018-09-27T15:11:16.787Z,18.7
2018-09-27T15:12:17.317Z,20.8
2018-09-27T15:13:16.596Z,20.4
2018-09-27T15:14:16.863Z,20.4
2018-09-27T15:15:17.138Z,19.6
2018-09-27T15:16:16.531Z,20.9
2018-09-27T15:17:16.815Z,20.0
2018-09-27T15:18:17.088Z,20.6
2018-09-27T15:19:16.359Z,20.7
2018-09-27T15:20:16.658Z,19.4
2018-09-27T15:21:16.675Z,18.7
2018-09-27T15:22:16.936Z,18.2
2018-09-27T15:23:17.239Z,20.2
2018-09-27T15:24:16.505Z,18.5
2018-09-27T15:25:16.786Z,18.3
2018-09-27T15:26:17.056Z,18.3
2018-09-27T15:27:16.324Z,18.3
2018-09-27T15:28:16.597Z,19.2
2018-09-27T15:29:16.862Z,18.6
2018-09-27T15:30:17.135Z,18.3
2018-09-27T15:31:17.181Z,18.2
2018-09-27T15:32:16.458Z,17.7
2018-09-27T15:33:16.733Z,18.3
2018-09-27T15:34:17.010Z,18.8
2018-09-27T17:26:16.626Z,52.5
2018-09-27T17:27:16.907Z,52.8
2018-09-27T17:28:17.186Z,52.7
2018-09-27T17:29:16.453Z,52.9
2018-09-27T17:30:16.727Z,53.0
2018-09-27T17:31:16.775Z,53.9
2018-09-27T17:32:17.056Z,54.2
2018-09-27T17:33:16.705Z,54.9
2018-09-27T17:34:17.013Z,54.8
2018-09-27T17:35:16.283Z,55.2
2018-09-27T17:36:16.573Z,55.2
2018-09-27T17:37:16.844Z,55.3
2018-09-27T17:38:17.108Z,56.0
2018-09-27T17:39:16.385Z,56.1
2018-09-27T17:40:16.737Z,56.7
2018-09-27T17:41:16.714Z,57.0
2018-09-27T17:42:16.985Z,57.2
2018-09-27T17:43:17.260Z,57.9
2018-09-27T17:44:16.543Z,58.1
2018-09-27T17:45:16.824Z,58.6
2018-09-27T17:46:17.285Z,58.6
2018-09-27T17:47:16.562Z,60.1
2018-09-27T17:48:16.838Z,61.9
2018-09-27T17:49:17.114Z,63.1
2018-09-27T17:50:16.392Z,62.8
2018-09-27T17:51:16.489Z,63.3
2018-09-27T17:52:16.767Z,63.3
2018-09-27T17:53:17.459Z,63.8
2018-09-27T17:54:16.838Z,64.3
2018-09-27T17:55:17.115Z,64.7
2018-09-27T17:56:16.397Z,64.6
2018-09-27T17:57:16.668Z,63.9
2018-09-27T17:58:16.942Z,64.0
2018-09-27T17:59:17.224Z,64.4
2018-09-27T18:00:16.503Z,64.3
2018-09-27T18:01:16.549Z,64.6
2018-09-27T18:02:16.824Z,64.4
2018-09-27T18:03:17.104Z,64.5
2018-09-27T18:04:16.373Z,64.3
2018-09-27T18:05:19.744Z,64.0
2018-09-27T18:06:17.020Z,64.8
2018-09-27T18:07:16.296Z,64.9
2018-09-27T18:08:16.563Z,64.5
2018-09-27T18:09:16.845Z,64.5
2018-09-27T18:10:17.122Z,64.5
2018-09-27T18:11:17.286Z,64.5
2018-09-27T18:12:16.564Z,65.0
2018-09-27T18:13:16.843Z,65.0
2018-09-27T18:14:17.172Z,65.6
2018-09-27T18:15:16.441Z,65.5
2018-09-27T18:16:16.713Z,66.2
2018-09-27T18:17:16.984Z,66.1
2018-09-27T18:18:16.256Z,66.6
2018-09-27T18:19:16.528Z,66.4
2018-09-27T18:20:16.808Z,66.0
2018-09-27T18:21:16.829Z,66.0
2018-09-27T18:22:17.103Z,64.6
2018-09-27T18:23:16.366Z,64.4
2018-09-27T18:24:16.640Z,64.6
2018-09-27T18:25:16.908Z,65.0
2018-09-27T18:26:17.176Z,66.4
2018-09-27T18:27:16.446Z,66.4
2018-09-27T18:28:16.726Z,66.5
2018-09-27T18:29:16.989Z,66.8
2018-09-27T18:30:17.281Z,65.8
2018-09-27T18:31:16.514Z,66.4
2018-09-27T18:32:16.840Z,67.4
2018-09-27T18:33:17.108Z,67.8
2018-09-27T18:34:16.386Z,67.9
2018-09-27T18:35:16.657Z,68.2
2018-09-27T18:36:16.926Z,68.3
2018-09-27T18:37:17.329Z,68.7
2018-09-27T18:38:17.331Z,69.5
2018-09-27T18:39:16.765Z,69.5
2018-09-27T18:40:17.236Z,69.7
2018-09-27T18:41:17.083Z,69.6
2018-09-27T18:42:16.357Z,69.7
2018-09-27T18:43:17.143Z,69.8
2018-09-27T18:44:16.444Z,70.3
2018-09-27T18:45:16.736Z,69.9
2018-09-27T18:46:17.004Z,70.4
2018-09-27T18:47:16.276Z,70.0
2018-09-27T18:48:16.548Z,70.2
2018-09-27T18:49:16.821Z,69.6
2018-09-27T18:50:17.104Z,69.7
2018-09-27T18:51:17.302Z,70.0
2018-09-27T18:52:16.581Z,71.8
2018-09-27T18:53:16.847Z,72.4
2018-09-27T18:54:17.122Z,72.7
2018-09-27T18:55:16.397Z,73.0
2018-09-27T18:56:16.672Z,73.4
2018-09-27T18:57:16.940Z,73.5
2018-09-27T18:58:17.228Z,73.9
2018-09-27T18:59:16.501Z,74.2
2018-09-27T19:00:16.782Z,74.1
2018-09-27T19:01:16.822Z,74.1
2018-09-27T19:02:17.090Z,74.0
2018-09-27T19:03:16.365Z,74.1
2018-09-27T19:04:16.639Z,73.9
2018-09-27T19:05:16.916Z,73.9
2018-09-27T19:06:17.184Z,73.9
2018-09-27T19:07:16.452Z,74.1
2018-09-27T19:08:16.732Z,74.2
2018-09-27T19:09:17.102Z,74.4
2018-09-27T19:10:16.388Z,74.7
2018-09-27T19:11:16.558Z,74.4
2018-09-27T19:12:16.848Z,74.6
2018-09-27T19:13:17.408Z,74.4
2018-09-27T19:14:16.672Z,74.6
2018-09-27T19:15:16.932Z,74.9
2018-09-27T19:16:17.200Z,75.2
2018-09-27T19:17:16.663Z,75.2
2018-09-27T19:18:16.996Z,75.3
2018-09-27T19:19:16.257Z,75.8
2018-09-27T19:20:16.537Z,75.2
2018-09-27T19:21:16.608Z,75.3
2018-09-27T19:22:16.873Z,75.0
2018-09-27T19:23:17.150Z,75.2
2018-09-27T19:24:16.418Z,75.3
2018-09-27T19:25:16.701Z,75.5
2018-09-27T19:26:16.965Z,63.2
2018-09-27T19:27:17.231Z,62.7
2018-09-27T19:28:16.502Z,76.1
2018-09-27T19:29:16.808Z,62.7
2018-09-27T19:30:17.086Z,63.0
2018-09-27T19:31:17.134Z,60.8
2018-09-27T19:32:16.412Z,60.7
2018-09-27T19:33:16.682Z,60.8
2018-09-27T19:34:16.943Z,60.9
2018-09-27T19:35:17.228Z,62.0
2018-09-27T19:36:16.490Z,62.0
2018-09-27T19:37:16.758Z,60.2
2018-09-27T19:38:17.023Z,61.0
2018-09-27T19:39:16.459Z,61.1
2018-09-27T19:40:16.754Z,61.0
2018-09-27T19:41:16.789Z,61.0
2018-09-27T19:42:17.053Z,60.6
2018-09-27T19:43:16.316Z,60.6
2018-09-27T19:44:16.580Z,60.8
2018-09-27T19:45:16.864Z,60.8
2018-09-27T19:46:17.137Z,60.8
2018-09-27T19:47:16.402Z,61.2
2018-09-27T19:48:16.664Z,60.1
2018-09-27T19:49:16.942Z,60.1
2018-09-27T19:50:17.217Z,60.3
2018-09-27T19:51:16.290Z,60.5
2018-09-27T19:52:16.689Z,60.7
2018-09-27T19:53:17.038Z,60.8
2018-09-27T19:54:16.314Z,60.6
2018-09-27T19:55:16.594Z,60.6
2018-09-27T19:56:16.867Z,60.5
2018-09-27T19:57:17.131Z,60.3
2018-09-27T19:58:16.724Z,60.4
2018-09-27T19:59:17.010Z,60.4
2018-09-27T20:00:16.290Z,60.2
2018-09-27T20:01:16.353Z,60.6
2018-09-27T20:02:16.618Z,60.6
2018-09-27T20:03:16.897Z,60.3
2018-09-27T20:04:17.594Z,59.9
2018-09-27T20:05:16.956Z,59.8
2018-09-27T20:06:17.225Z,60.0
2018-09-27T20:07:16.493Z,59.9
2018-09-27T20:08:16.762Z,59.9
2018-09-27T20:09:17.045Z,60.0
2018-09-27T20:10:16.627Z,60.2
2018-09-27T20:11:16.373Z,60.4
2018-09-27T20:12:16.646Z,60.6
2018-09-27T20:13:16.926Z,60.8
2018-09-27T20:14:17.202Z,60.8
2018-09-27T20:15:16.475Z,60.9
2018-09-27T20:16:17.113Z,61.0
2018-09-27T20:17:16.546Z,61.0
2018-09-27T20:18:16.818Z,61.1
2018-09-27T20:19:17.096Z,60.5
2018-09-27T20:20:16.379Z,60.7
2018-09-27T20:21:16.435Z,60.7
2018-09-27T20:22:16.738Z,60.8
2018-09-27T20:23:17.020Z,60.7
2018-09-27T20:24:16.288Z,60.5
2018-09-27T20:25:16.567Z,60.9
2018-09-27T20:26:16.836Z,60.6
2018-09-27T20:27:17.119Z,60.6
2018-09-27T20:28:16.711Z,60.6
2018-09-27T20:29:16.998Z,60.6
2018-09-27T20:30:16.299Z,60.4
2018-09-27T20:31:16.327Z,60.6
2018-09-27T20:32:16.595Z,60.8
2018-09-27T20:33:16.861Z,60.9
2018-09-27T20:34:17.294Z,61.0
2018-09-27T20:35:16.651Z,60.9
2018-09-27T20:36:16.914Z,60.8
2018-09-27T20:37:17.473Z,61.1
2018-09-27T20:38:16.754Z,61.1
2018-09-27T20:39:17.025Z,61.1
2018-09-27T20:40:16.303Z,61.1
2018-09-27T20:41:16.356Z,61.1
2018-09-27T20:42:16.628Z,83.6
2018-09-27T20:43:16.897Z,83.6
2018-09-27T20:44:17.165Z,83.3
2018-09-27T20:45:16.456Z,82.7
2018-09-27T20:46:16.723Z,82.8
2018-09-27T20:47:16.987Z,82.9
2018-09-27T20:48:16.261Z,83.3
2018-09-27T20:49:16.535Z,83.4
2018-09-27T20:50:16.815Z,83.3
2018-09-27T20:51:16.861Z,83.7
2018-09-27T20:52:17.128Z,84.2
2018-09-27T20:53:16.408Z,84.2
2018-09-27T20:54:16.680Z,84.3
2018-09-27T20:55:16.953Z,84.4
2018-09-27T20:56:17.231Z,84.3
2018-09-27T20:57:16.503Z,84.6
2018-09-27T20:58:16.779Z,84.9
2018-09-27T20:59:17.049Z,84.9
2018-09-27T21:00:16.324Z,84.6
2018-09-27T21:01:16.368Z,84.3
2018-09-27T21:02:16.636Z,83.8
2018-09-27T21:03:17.048Z,83.6
2018-09-27T21:04:16.362Z,83.7
2018-09-27T21:05:16.767Z,83.4
2018-09-27T21:06:17.039Z,83.4
2018-09-27T21:07:16.307Z,83.6
2018-09-27T21:08:16.586Z,82.2
2018-09-27T21:09:16.853Z,81.6
2018-09-27T21:10:17.164Z,81.3
2018-09-27T21:11:17.462Z,81.8
2018-09-27T21:12:16.720Z,82.8
2018-09-27T21:13:16.983Z,83.8
2018-09-27T21:14:17.250Z,83.8
2018-09-27T21:15:16.525Z,84.0
2018-09-27T21:16:16.793Z,84.2
2018-09-27T21:17:17.060Z,84.4
2018-09-27T21:18:16.324Z,84.7
2018-09-27T21:19:16.699Z,85.2
2018-09-27T21:20:16.993Z,85.4
2018-09-27T21:21:17.016Z,85.4
2018-09-27T21:22:16.293Z,85.7
2018-09-27T21:23:16.567Z,85.7
2018-09-27T21:24:16.835Z,86.2
2018-09-27T21:25:17.099Z,86.6
2018-09-27T21:26:16.394Z,86.4
2018-09-27T21:27:16.690Z,85.2
2018-09-27T21:28:16.948Z,82.1
2018-09-27T21:29:17.223Z,81.4
2018-09-27T21:30:16.507Z,81.1
2018-09-27T21:31:16.560Z,81.0
2018-09-27T21:32:16.827Z,80.8
2018-09-27T21:33:17.114Z,81.6
2018-09-27T21:34:16.385Z,82.5
2018-09-27T21:35:16.670Z,82.7
2018-09-27T21:36:16.934Z,83.4
2018-09-27T21:37:17.218Z,83.5
2018-09-27T21:38:16.488Z,84.2
2018-09-27T21:39:16.762Z,84.4
2018-09-27T21:40:17.050Z,84.5
2018-09-27T21:41:17.082Z,84.9
2018-09-27T21:42:16.677Z,84.8
2018-09-27T21:43:17.153Z,85.4
2018-09-27T21:44:16.426Z,85.5
2018-09-27T21:45:16.696Z,85.7
2018-09-27T21:46:16.961Z,86.1
2018-09-27T21:47:17.227Z,86.5
2018-09-27T21:48:16.495Z,86.7
2018-09-27T21:49:16.772Z,86.6
2018-09-27T21:50:17.491Z,87.0
2018-09-27T21:51:17.098Z,87.2
2018-09-27T21:52:16.344Z,87.2
2018-09-27T21:53:16.611Z,87.1
2018-09-27T21:54:16.889Z,87.3
2018-09-27T21:55:17.155Z,87.5
2018-09-27T21:56:16.425Z,87.4
2018-09-27T21:57:16.705Z,87.4
2018-09-27T21:58:16.982Z,87.4
2018-09-27T21:59:17.249Z,87.9
2018-09-27T22:00:16.548Z,87.8
2018-09-27T22:01:16.570Z,87.3
2018-09-27T22:02:16.841Z,87.5
2018-09-27T22:03:17.119Z,87.2
2018-09-27T22:04:16.393Z,87.4
2018-09-27T22:05:16.679Z,87.5
2018-09-27T22:06:16.951Z,87.4
2018-09-27T22:07:17.212Z,87.9
2018-09-27T22:08:16.483Z,88.0
2018-09-27T22:09:17.026Z,88.1
2018-09-27T22:10:16.332Z,88.3
2018-09-27T22:11:16.350Z,88.3
2018-09-27T22:12:16.625Z,88.4
2018-09-27T22:13:16.885Z,88.6
2018-09-27T22:14:17.189Z,88.5
2018-09-27T22:15:16.480Z,88.7
2018-09-27T22:16:16.747Z,88.8
2018-09-27T22:17:17.025Z,88.8
2018-09-27T22:18:16.272Z,88.9
2018-09-27T22:19:16.530Z,89.0
2018-09-27T22:20:16.792Z,89.0
2018-09-27T22:21:16.828Z,88.9
2018-09-27T22:22:17.093Z,88.7
2018-09-27T22:23:16.360Z,88.9
2018-09-27T22:24:16.623Z,89.2
2018-09-27T22:25:16.902Z,89.3
2018-09-27T22:26:17.134Z,89.3
2018-09-27T22:27:16.402Z,89.9
2018-09-27T22:28:16.674Z,89.9
2018-09-27T22:29:16.913Z,89.9
2018-09-27T22:30:17.197Z,89.9
2018-09-27T22:31:17.225Z,89.9
2018-09-27T22:32:16.480Z,89.9
2018-09-27T22:33:16.744Z,90.0
2018-09-27T22:34:17.011Z,90.1
2018-09-27T22:35:16.288Z,90.3
2018-09-27T22:36:16.534Z,90.4
2018-09-27T22:37:16.842Z,90.4
2018-09-27T22:38:17.115Z,90.5
2018-09-27T22:39:16.390Z,90.7
2018-09-27T22:40:16.668Z,90.5
2018-09-27T22:41:16.712Z,90.7
2018-09-27T22:42:16.988Z,90.7
2018-09-27T22:43:16.252Z,90.7
2018-09-27T22:44:16.517Z,90.7
2018-09-27T22:45:16.841Z,90.7
2018-09-27T22:46:17.105Z,91.0
2018-09-27T22:47:16.437Z,91.0
2018-09-27T22:48:16.673Z,90.9
2018-09-27T22:49:16.985Z,90.9
2018-09-27T22:50:17.273Z,91.0
2018-09-27T22:51:16.328Z,91.0
2018-09-27T22:52:16.594Z,91.0
2018-09-27T22:53:16.868Z,91.0
2018-09-27T22:54:17.143Z,91.2
2018-09-27T22:55:16.418Z,91.3
2018-09-27T22:56:16.686Z,91.3
2018-09-27T22:57:16.964Z,91.3
2018-09-27T22:58:17.236Z,91.5
2018-09-27T22:59:16.517Z,91.7
2018-09-27T23:00:16.842Z,91.5
2018-09-27T23:01:16.807Z,91.5
2018-09-27T23:02:17.070Z,91.1
2018-09-27T23:03:16.335Z,91.2
2018-09-27T23:04:16.610Z,91.4
2018-09-27T23:05:16.849Z,91.5
2018-09-27T23:06:17.113Z,91.5
2018-09-27T23:07:16.383Z,91.7
2018-09-27T23:08:16.662Z,91.9
2018-09-27T23:09:16.928Z,92.0
2018-09-27T23:10:17.213Z,91.9
2018-09-27T23:11:17.250Z,91.9
2018-09-27T23:12:16.527Z,92.1
2018-09-27T23:13:16.796Z,92.1
2018-09-27T23:14:17.364Z,92.1
2018-09-27T23:15:16.637Z,92.2
2018-09-27T23:16:16.904Z,92.2
2018-09-27T23:17:17.165Z,92.4
2018-09-27T23:18:16.431Z,92.2
2018-09-27T23:19:16.697Z,91.8
2018-09-27T23:20:17.048Z,91.5
2018-09-27T23:21:17.021Z,91.4
2018-09-27T23:22:16.304Z,91.2
2018-09-27T23:23:16.585Z,90.1
2018-09-27T23:24:16.851Z,90.0
2018-09-27T23:25:17.623Z,89.5
2018-09-27T23:26:16.886Z,89.7
2018-09-27T23:27:17.152Z,90.4
2018-09-27T23:28:16.430Z,91.0
2018-09-27T23:29:16.698Z,91.3
2018-09-27T23:30:17.010Z,91.4
2018-09-27T23:31:17.032Z,91.5
2018-09-27T23:32:16.321Z,91.8
2018-09-27T23:33:16.623Z,92.0
2018-09-27T23:34:16.896Z,92.4
2018-09-27T23:35:17.158Z,92.5
2018-09-27T23:36:16.426Z,92.8
2018-09-27T23:37:16.698Z,92.8
2018-09-27T23:38:16.962Z,92.9
2018-09-27T23:39:17.230Z,92.9
2018-09-27T23:40:16.523Z,93.1
2018-09-27T23:41:16.570Z,93.1
2018-09-27T23:42:16.851Z,93.4
2018-09-27T23:43:17.116Z,93.5
2018-09-27T23:44:16.396Z,93.6
2018-09-27T23:45:16.674Z,93.6
2018-09-27T23:46:16.933Z,93.8
2018-09-27T23:47:17.225Z,93.9
2018-09-27T23:48:16.487Z,93.8
2018-09-27T23:49:16.756Z,93.6
2018-09-27T23:50:17.035Z,93.3
2018-09-27T23:51:17.082Z,92.9
2018-09-27T23:52:16.357Z,93.0
2018-09-27T23:53:16.628Z,93.2
2018-09-27T23:54:16.900Z,93.1
2018-09-27T23:55:17.187Z,92.8
2018-09-27T23:56:16.454Z,93.1
2018-09-27T23:57:16.726Z,93.6
2018-09-27T23:58:16.992Z,93.6
2018-09-27T23:59:16.267Z,93.7
